Time;durP1;ratioP1;P1;durP2;ratioP2;P2;SDS_P1;SDS_P2;PMS_P1;PMS_P2;Temp;Humidity;BMP_temperature;BMP_pressure;BME280_temperature;BME280_humidity;BME280_pressure;Samples;Min_cycle;Max_cycle;Signal;HPM_P1;HPM_P2
2023/05/25 00:01:47;;;;;;;2.57;1.73;;;;;;;;;;5077857;28;20245;-63
2023/05/25 00:04:18;;;;;;;3.27;2.10;;;;;;;;;;5078217;28;20285;-63
2023/05/25 00:06:46;;;;;;;2.23;1.67;;;;;;;;;;5078149;28;20229;-63
2023/05/25 00:09:15;;;;;;;2.83;1.67;;;;;;;;;;5077994;28;20201;-63
2023/05/25 00:11:44;;;;;;;2.03;1.53;;;;;;;;;;5077965;28;20525;-63
2023/05/25 00:14:12;;;;;;;3.97;1.87;;;;;;;;;;5077645;28;20228;-63
2023/05/25 00:16:40;;;;;;;1.80;1.40;;;;;;;;;;5077662;28;20276;-63
2023/05/25 00:19:09;;;;;;;3.50;1.50;;;;;;;;;;5077805;28;20293;-63
2023/05/25 00:21:38;;;;;;;2.47;1.50;;;;;;;;;;5077886;28;20235;-63
2023/05/25 00:24:06;;;;;;;4.37;1.83;;;;;;;;;;5077504;28;20275;-63
2023/05/25 00:26:35;;;;;;;1.87;1.70;;;;;;;;;;5077938;28;20221;-63
2023/05/25 00:29:03;;;;;;;2.50;1.40;;;;;;;;;;5077500;28;20226;-63
2023/05/25 00:31:32;;;;;;;5.83;2.23;;;;;;;;;;5077948;28;20210;-63
2023/05/25 00:34:00;;;;;;;1.67;1.53;;;;;;;;;;5077754;28;20206;-63
2023/05/25 00:36:28;;;;;;;2.50;1.57;;;;;;;;;;5077794;28;20271;-63
2023/05/25 00:38:56;;;;;;;5.13;1.67;;;;;;;;;;5077546;28;20679;-63
2023/05/25 00:41:26;;;;;;;5.00;1.80;;;;;;;;;;5077918;28;20206;-63
2023/05/25 00:43:55;;;;;;;6.90;2.00;;;;;;;;;;5077397;28;20577;-63
2023/05/25 00:46:23;;;;;;;4.87;1.50;;;;;;;;;;5077637;28;20735;-63
2023/05/25 00:48:52;;;;;;;4.20;1.30;;;;;;;;;;5077933;28;20202;-63
2023/05/25 00:51:21;;;;;;;4.40;1.90;;;;;;;;;;5078021;28;20220;-63
2023/05/25 00:53:49;;;;;;;2.07;1.63;;;;;;;;;;5077520;28;20205;-63
2023/05/25 00:56:19;;;;;;;4.03;2.07;;;;;;;;;;5077706;28;20226;-63
2023/05/25 00:58:50;;;;;;;2.60;1.63;;;;;;;;;;5077258;28;20256;-63
2023/05/25 01:01:20;;;;;;;4.60;1.63;;;;;;;;;;5077503;28;20246;-63
2023/05/25 01:03:52;;;;;;;5.37;1.60;;;;;;;;;;5077524;28;20217;-63
2023/05/25 01:06:22;;;;;;;2.17;1.80;;;;;;;;;;5077430;28;20230;-63
2023/05/25 01:08:52;;;;;;;4.47;1.80;;;;;;;;;;5079436;28;20210;-63
2023/05/25 01:11:23;;;;;;;3.17;1.80;;;;;;;;;;5081828;28;20206;-63
2023/05/25 01:13:52;;;;;;;3.37;1.77;;;;;;;;;;5081309;28;20202;-63
2023/05/25 01:16:22;;;;;;;2.43;1.80;;;;;;;;;;5081575;28;20230;-63
2023/05/25 01:18:51;;;;;;;4.47;1.63;;;;;;;;;;5081558;28;20227;-63
2023/05/25 01:21:22;;;;;;;5.10;1.50;;;;;;;;;;5081419;28;20669;-63
2023/05/25 01:23:53;;;;;;;5.60;1.80;;;;;;;;;;5081574;28;20252;-63
2023/05/25 01:26:23;;;;;;;4.20;1.40;;;;;;;;;;5081050;28;20233;-63
2023/05/25 01:28:52;;;;;;;3.87;1.70;;;;;;;;;;5081177;28;20203;-62
2023/05/25 01:31:22;;;;;;;5.30;1.90;;;;;;;;;;5081383;28;20216;-62
2023/05/25 01:33:51;;;;;;;3.77;1.60;;;;;;;;;;5081210;28;20293;-63
2023/05/25 01:36:19;;;;;;;3.00;1.83;;;;;;;;;;5081005;28;20265;-62
2023/05/25 01:38:49;;;;;;;3.23;1.70;;;;;;;;;;5081005;28;20817;-63
2023/05/25 01:41:17;;;;;;;5.87;1.93;;;;;;;;;;5078997;28;20221;-62
2023/05/25 01:43:45;;;;;;;4.33;1.93;;;;;;;;;;5072632;28;20198;-62
2023/05/25 01:46:18;;;;;;;3.13;1.90;;;;;;;;;;5080740;28;20272;-62
2023/05/25 01:48:52;;;;;;;4.23;2.17;;;;;;;;;;5080869;28;20723;-62
2023/05/25 01:51:24;;;;;;;5.27;1.80;;;;;;;;;;5080732;28;20225;-63
2023/05/25 01:53:54;;;;;;;1.93;1.60;;;;;;;;;;5080716;28;20571;-63
2023/05/25 01:56:23;;;;;;;7.37;2.03;;;;;;;;;;5080654;28;20226;-63
2023/05/25 01:58:52;;;;;;;5.33;2.23;;;;;;;;;;5080440;28;20685;-63
2023/05/25 02:01:20;;;;;;;4.67;1.77;;;;;;;;;;5079939;28;20728;-63
2023/05/25 02:03:49;;;;;;;3.17;1.90;;;;;;;;;;5079533;28;20207;-63
2023/05/25 02:06:17;;;;;;;2.83;1.60;;;;;;;;;;5079293;28;20226;-63
2023/05/25 02:08:45;;;;;;;2.93;1.60;;;;;;;;;;5079403;28;20213;-63
2023/05/25 02:11:14;;;;;;;3.40;2.07;;;;;;;;;;5079654;28;20206;-63
2023/05/25 02:13:42;;;;;;;4.23;2.13;;;;;;;;;;5079062;28;20213;-63
2023/05/25 02:16:10;;;;;;;2.23;1.70;;;;;;;;;;5079201;28;20226;-63
2023/05/25 02:18:38;;;;;;;3.60;1.73;;;;;;;;;;5078683;28;20629;-63
2023/05/25 02:21:06;;;;;;;5.03;2.17;;;;;;;;;;5079261;28;20300;-63
2023/05/25 02:23:34;;;;;;;2.93;1.90;;;;;;;;;;5079170;28;20206;-63
2023/05/25 02:26:02;;;;;;;3.83;2.23;;;;;;;;;;5078904;28;20237;-63
2023/05/25 02:28:32;;;;;;;7.10;2.10;;;;;;;;;;5078729;28;20202;-63
2023/05/25 02:31:00;;;;;;;3.13;2.10;;;;;;;;;;5079255;28;20213;-63
2023/05/25 02:33:28;;;;;;;6.80;2.30;;;;;;;;;;5079118;28;20210;-63
2023/05/25 02:35:56;;;;;;;3.57;2.10;;;;;;;;;;5079060;28;20226;-63
2023/05/25 02:38:24;;;;;;;5.77;2.20;;;;;;;;;;5078814;28;20219;-64
2023/05/25 02:40:52;;;;;;;2.90;2.00;;;;;;;;;;5078743;28;20214;-62
2023/05/25 02:43:20;;;;;;;3.93;2.20;;;;;;;;;;5078497;28;20577;-62
2023/05/25 02:45:49;;;;;;;8.50;2.30;;;;;;;;;;5078931;28;20226;-62
2023/05/25 02:48:17;;;;;;;4.50;2.30;;;;;;;;;;5078696;28;20658;-62
2023/05/25 02:50:45;;;;;;;2.40;1.97;;;;;;;;;;5078966;28;20213;-62
2023/05/25 02:53:13;;;;;;;5.03;2.43;;;;;;;;;;5078689;28;20213;-61
2023/05/25 02:55:42;;;;;;;6.37;2.67;;;;;;;;;;5078760;28;20222;-62
2023/05/25 02:58:10;;;;;;;4.40;2.10;;;;;;;;;;5078165;28;20264;-62
2023/05/25 03:00:38;;;;;;;6.10;2.33;;;;;;;;;;5032196;28;1323799;-62
2023/05/25 03:03:08;;;;;;;3.53;2.30;;;;;;;;;;5079592;28;20213;-62
2023/05/25 03:05:37;;;;;;;3.73;2.30;;;;;;;;;;5079972;28;20256;-62
2023/05/25 03:08:05;;;;;;;5.37;2.30;;;;;;;;;;5080271;28;20736;-62
2023/05/25 03:10:33;;;;;;;5.27;2.17;;;;;;;;;;5079703;28;20210;-62
2023/05/25 03:13:01;;;;;;;4.13;2.10;;;;;;;;;;5079106;28;20743;-62
2023/05/25 03:15:29;;;;;;;5.53;2.40;;;;;;;;;;5079288;28;20241;-62
2023/05/25 03:18:00;;;;;;;3.30;2.30;;;;;;;;;;5079543;28;20232;-62
2023/05/25 03:20:30;;;;;;;4.83;2.47;;;;;;;;;;5079311;28;20226;-62
2023/05/25 03:22:58;;;;;;;5.47;2.10;;;;;;;;;;5079274;28;20210;-63
2023/05/25 03:25:26;;;;;;;3.37;1.83;;;;;;;;;;5078770;28;20713;-62
2023/05/25 03:27:56;;;;;;;8.30;2.60;;;;;;;;;;5066960;28;20697;-61
2023/05/25 03:30:24;;;;;;;8.50;2.10;;;;;;;;;;5078374;28;20284;-62
2023/05/25 03:32:52;;;;;;;6.17;2.63;;;;;;;;;;5078837;28;20260;-61
2023/05/25 03:35:20;;;;;;;3.87;2.40;;;;;;;;;;5078657;28;20672;-62
2023/05/25 03:37:50;;;;;;;6.13;2.73;;;;;;;;;;5078731;28;20206;-62
2023/05/25 03:40:17;;;;;;;5.83;2.70;;;;;;;;;;5078804;28;20226;-62
2023/05/25 03:42:45;;;;;;;4.50;2.63;;;;;;;;;;5073206;28;20225;-62
2023/05/25 03:45:13;;;;;;;3.97;2.30;;;;;;;;;;5073348;28;20275;-62
2023/05/25 03:47:41;;;;;;;10.90;2.93;;;;;;;;;;5078571;28;20206;-61
2023/05/25 03:50:10;;;;;;;7.63;2.53;;;;;;;;;;5078696;28;20232;-62
2023/05/25 03:52:38;;;;;;;6.80;2.63;;;;;;;;;;5078508;28;20652;-61
2023/05/25 03:55:07;;;;;;;7.00;2.53;;;;;;;;;;5078383;28;20210;-62
2023/05/25 03:57:35;;;;;;;4.73;2.73;;;;;;;;;;5071234;28;20194;-62
2023/05/25 04:00:04;;;;;;;5.77;2.27;;;;;;;;;;5077794;28;20697;-61
2023/05/25 04:02:33;;;;;;;4.57;2.93;;;;;;;;;;5078108;28;20321;-62
2023/05/25 04:05:01;;;;;;;5.00;2.70;;;;;;;;;;5078430;28;20206;-62
2023/05/25 04:07:30;;;;;;;6.43;2.40;;;;;;;;;;5078130;28;20297;-63
2023/05/25 04:09:58;;;;;;;7.17;2.60;;;;;;;;;;5078102;28;20261;-62
2023/05/25 04:12:28;;;;;;;5.73;2.63;;;;;;;;;;5078155;28;20676;-63
2023/05/25 04:14:56;;;;;;;5.83;2.87;;;;;;;;;;5078015;28;20212;-63
2023/05/25 04:17:24;;;;;;;6.13;2.70;;;;;;;;;;5078293;28;20289;-63
2023/05/25 04:19:52;;;;;;;8.87;2.87;;;;;;;;;;5077904;28;20264;-63
2023/05/25 04:22:20;;;;;;;7.57;3.17;;;;;;;;;;5078150;28;20248;-63
2023/05/25 04:24:48;;;;;;;7.80;2.87;;;;;;;;;;5078045;28;20210;-63
2023/05/25 04:27:16;;;;;;;5.90;3.00;;;;;;;;;;5078041;28;20206;-61
2023/05/25 04:29:45;;;;;;;8.30;3.27;;;;;;;;;;5077641;28;20739;-61
2023/05/25 04:32:16;;;;;;;7.77;3.63;;;;;;;;;;5078032;28;20233;-64
2023/05/25 04:34:45;;;;;;;5.33;2.53;;;;;;;;;;5078075;28;20241;-61
2023/05/25 04:37:13;;;;;;;8.97;3.33;;;;;;;;;;5077974;28;20236;-61
2023/05/25 04:39:41;;;;;;;7.53;3.00;;;;;;;;;;5077652;28;20330;-62
2023/05/25 04:42:09;;;;;;;7.90;2.20;;;;;;;;;;5077717;28;20202;-61
2023/05/25 04:44:38;;;;;;;10.20;3.13;;;;;;;;;;5077510;28;20257;-61
2023/05/25 04:47:09;;;;;;;8.67;3.30;;;;;;;;;;5077638;28;20225;-63
2023/05/25 04:49:37;;;;;;;10.57;2.47;;;;;;;;;;5077586;28;20206;-62
2023/05/25 04:52:05;;;;;;;10.70;3.23;;;;;;;;;;5077728;28;20260;-63
2023/05/25 04:54:34;;;;;;;11.67;3.57;;;;;;;;;;5077442;28;20198;-59
2023/05/25 04:57:02;;;;;;;5.27;2.50;;;;;;;;;;5077927;28;20222;-60
2023/05/25 04:59:30;;;;;;;7.30;2.50;;;;;;;;;;5077920;28;20226;-60
2023/05/25 05:01:58;;;;;;;6.80;2.50;;;;;;;;;;5077523;28;20234;-61
2023/05/25 05:04:28;;;;;;;7.63;3.13;;;;;;;;;;5077921;28;20230;-60
2023/05/25 05:06:56;;;;;;;5.93;2.97;;;;;;;;;;5077751;28;20229;-59
2023/05/25 05:09:26;;;;;;;6.00;2.77;;;;;;;;;;5076920;28;20236;-59
2023/05/25 05:11:54;;;;;;;10.53;2.80;;;;;;;;;;5066465;28;20198;-59
2023/05/25 05:14:22;;;;;;;8.83;2.70;;;;;;;;;;5068174;28;20693;-60
2023/05/25 05:16:50;;;;;;;7.80;3.30;;;;;;;;;;5072196;28;20213;-60
2023/05/25 05:19:18;;;;;;;6.80;3.10;;;;;;;;;;5064865;28;20233;-61
2023/05/25 05:21:48;;;;;;;4.90;2.83;;;;;;;;;;5067014;28;20217;-60
2023/05/25 05:24:16;;;;;;;4.77;2.67;;;;;;;;;;5076911;28;20199;-60
2023/05/25 05:26:44;;;;;;;7.07;3.20;;;;;;;;;;5076952;28;20222;-60
2023/05/25 05:29:25;;;;;;;3.10;2.57;;;;;;;;;;5070520;28;20202;-60
2023/05/25 05:31:54;;;;;;;8.90;3.37;;;;;;;;;;5077603;28;20260;-60
2023/05/25 05:34:22;;;;;;;6.20;2.97;;;;;;;;;;5077227;28;20245;-61
2023/05/25 05:36:51;;;;;;;3.67;3.00;;;;;;;;;;5077062;28;20697;-61
2023/05/25 05:39:25;;;;;;;6.33;3.03;;;;;;;;;;5077093;28;20569;-61
2023/05/25 05:41:53;;;;;;;5.70;3.60;;;;;;;;;;5076959;28;20203;-61
2023/05/25 05:44:22;;;;;;;5.47;3.40;;;;;;;;;;5077133;28;20203;-61
2023/05/25 05:46:58;;;;;;;7.30;3.00;;;;;;;;;;5077122;28;20222;-61
2023/05/25 05:49:27;;;;;;;6.47;3.67;;;;;;;;;;5077292;28;20245;-61
2023/05/25 05:51:57;;;;;;;6.37;2.90;;;;;;;;;;5077246;28;20234;-60
2023/05/25 05:54:26;;;;;;;6.20;3.00;;;;;;;;;;5078398;28;20206;-60
2023/05/25 05:56:54;;;;;;;9.23;3.40;;;;;;;;;;5080907;28;20214;-60
2023/05/25 05:59:22;;;;;;;6.67;2.97;;;;;;;;;;5070359;28;20266;-60
2023/05/25 06:01:50;;;;;;;7.93;3.30;;;;;;;;;;5080609;28;20238;-60
2023/05/25 06:04:19;;;;;;;7.43;3.10;;;;;;;;;;5079964;28;20202;-60
2023/05/25 06:06:46;;;;;;;6.00;3.33;;;;;;;;;;5080447;28;20225;-60
2023/05/25 06:09:16;;;;;;;5.37;2.70;;;;;;;;;;5080333;28;20206;-59
2023/05/25 06:11:44;;;;;;;8.37;3.20;;;;;;;;;;5079950;28;20202;-61
2023/05/25 06:14:12;;;;;;;6.20;3.07;;;;;;;;;;5079422;28;20206;-61
2023/05/25 06:16:42;;;;;;;4.90;2.70;;;;;;;;;;5080150;28;20236;-61
2023/05/25 06:19:10;;;;;;;8.10;3.77;;;;;;;;;;5080610;28;20214;-61
2023/05/25 06:21:38;;;;;;;13.83;3.93;;;;;;;;;;5080387;28;20226;-61
2023/05/25 06:24:07;;;;;;;7.90;3.57;;;;;;;;;;5080176;28;20676;-61
2023/05/25 06:26:36;;;;;;;7.87;2.97;;;;;;;;;;5079944;28;20248;-61
2023/05/25 06:29:04;;;;;;;6.40;2.87;;;;;;;;;;5080362;28;20217;-61
2023/05/25 06:31:32;;;;;;;7.27;2.63;;;;;;;;;;5073007;28;20241;-62
2023/05/25 06:34:00;;;;;;;8.20;2.93;;;;;;;;;;5074847;28;20202;-62
2023/05/25 06:36:28;;;;;;;6.27;3.67;;;;;;;;;;5079462;28;20257;-61
2023/05/25 06:38:56;;;;;;;6.33;3.30;;;;;;;;;;5079599;28;20222;-61
2023/05/25 06:41:25;;;;;;;11.23;3.40;;;;;;;;;;5079616;28;20705;-61
2023/05/25 06:43:54;;;;;;;4.87;3.03;;;;;;;;;;5079234;28;20216;-62
2023/05/25 06:46:22;;;;;;;8.40;3.63;;;;;;;;;;5079360;28;20636;-63
2023/05/25 06:48:51;;;;;;;8.03;3.63;;;;;;;;;;5079215;28;20210;-63
2023/05/25 06:51:22;;;;;;;13.13;3.50;;;;;;;;;;5079474;28;20206;-63
2023/05/25 06:53:50;;;;;;;8.53;3.60;;;;;;;;;;5079183;28;20236;-63
2023/05/25 06:56:18;;;;;;;6.47;3.13;;;;;;;;;;5079229;28;20260;-63
2023/05/25 06:58:46;;;;;;;10.13;3.43;;;;;;;;;;5078064;28;20218;-63
2023/05/25 07:01:16;;;;;;;7.13;3.40;;;;;;;;;;5079451;28;20249;-63
2023/05/25 07:03:44;;;;;;;10.23;3.53;;;;;;;;;;5079480;28;20689;-63
2023/05/25 07:06:12;;;;;;;5.03;3.10;;;;;;;;;;5078132;28;20238;-62
2023/05/25 07:08:40;;;;;;;8.77;3.10;;;;;;;;;;5079225;28;20206;-62
2023/05/25 07:11:11;;;;;;;7.17;2.97;;;;;;;;;;5079506;28;20205;-63
2023/05/25 07:13:39;;;;;;;7.60;3.07;;;;;;;;;;5079250;28;20202;-62
2023/05/25 07:16:07;;;;;;;8.57;3.07;;;;;;;;;;5078739;28;20237;-63
2023/05/25 07:18:38;;;;;;;6.27;3.43;;;;;;;;;;5079101;28;20202;-64
2023/05/25 07:21:08;;;;;;;5.10;3.23;;;;;;;;;;5079185;28;20244;-65
2023/05/25 07:23:37;;;;;;;10.40;3.37;;;;;;;;;;5078990;28;20210;-64
2023/05/25 07:26:05;;;;;;;8.90;3.27;;;;;;;;;;5078772;28;20735;-64
2023/05/25 07:28:33;;;;;;;7.63;3.37;;;;;;;;;;5076119;28;20248;-64
2023/05/25 07:31:01;;;;;;;8.83;3.73;;;;;;;;;;5066492;28;20195;-62
2023/05/25 07:33:29;;;;;;;5.80;3.17;;;;;;;;;;5078658;28;20202;-63
2023/05/25 07:35:59;;;;;;;7.97;3.73;;;;;;;;;;5078368;28;20254;-62
2023/05/25 07:38:27;;;;;;;8.17;3.60;;;;;;;;;;5078152;28;20210;-66
2023/05/25 07:40:55;;;;;;;5.33;2.83;;;;;;;;;;5078601;28;20279;-65
2023/05/25 07:43:23;;;;;;;3.77;2.93;;;;;;;;;;5078320;28;20234;-65
2023/05/25 07:45:51;;;;;;;7.57;3.10;;;;;;;;;;5078356;28;20232;-63
2023/05/25 07:48:19;;;;;;;5.93;2.53;;;;;;;;;;5073010;28;20213;-63
2023/05/25 07:50:47;;;;;;;6.23;3.30;;;;;;;;;;5078676;28;20214;-64
2023/05/25 07:53:17;;;;;;;7.47;3.40;;;;;;;;;;5078432;28;20206;-65
2023/05/25 07:55:45;;;;;;;6.77;3.43;;;;;;;;;;5078494;28;20225;-64
2023/05/25 07:58:13;;;;;;;9.17;3.70;;;;;;;;;;5078060;28;20597;-65
2023/05/25 08:00:42;;;;;;;10.83;3.93;;;;;;;;;;5078113;28;20238;-65
2023/05/25 08:03:10;;;;;;;9.07;3.30;;;;;;;;;;5078152;28;20206;-65
2023/05/25 08:05:39;;;;;;;12.43;3.87;;;;;;;;;;5078463;28;20230;-64
2023/05/25 08:08:07;;;;;;;9.03;3.60;;;;;;;;;;5077885;28;20213;-66
2023/05/25 08:10:36;;;;;;;7.27;3.73;;;;;;;;;;5078144;28;20225;-63
2023/05/25 08:13:04;;;;;;;7.37;3.37;;;;;;;;;;5077796;28;20238;-64
2023/05/25 08:15:32;;;;;;;10.03;3.50;;;;;;;;;;5078296;28;20256;-64
2023/05/25 08:18:03;;;;;;;7.13;3.13;;;;;;;;;;5074571;28;20201;-65
2023/05/25 08:20:31;;;;;;;5.17;3.23;;;;;;;;;;5071821;28;20202;-65
2023/05/25 08:23:00;;;;;;;10.93;3.87;;;;;;;;;;5076424;28;20214;-65
2023/05/25 08:25:28;;;;;;;6.10;3.17;;;;;;;;;;5075106;28;20229;-65
2023/05/25 08:27:58;;;;;;;7.47;3.40;;;;;;;;;;5074289;28;20210;-67
2023/05/25 08:30:26;;;;;;;6.27;3.37;;;;;;;;;;5075000;28;20198;-65
2023/05/25 08:32:54;;;;;;;8.13;3.17;;;;;;;;;;5077895;28;20260;-64
2023/05/25 08:35:22;;;;;;;7.90;3.23;;;;;;;;;;5070183;28;20218;-65
2023/05/25 08:37:50;;;;;;;7.70;3.90;;;;;;;;;;5076225;28;20221;-66
2023/05/25 08:40:19;;;;;;;9.13;3.47;;;;;;;;;;5077609;28;20202;-67
2023/05/25 08:42:47;;;;;;;7.03;3.40;;;;;;;;;;5067506;28;20257;-66
2023/05/25 08:45:16;;;;;;;9.77;3.60;;;;;;;;;;5077701;28;20222;-67
2023/05/25 08:48:04;;;;;;;9.37;4.13;;;;;;;;;;5077377;28;20206;-65
2023/05/25 08:50:32;;;;;;;9.77;3.70;;;;;;;;;;5077751;28;20213;-67
2023/05/25 08:53:03;;;;;;;8.20;3.33;;;;;;;;;;5077504;28;20634;-66
2023/05/25 08:55:34;;;;;;;9.30;3.50;;;;;;;;;;5077747;28;20230;-66
2023/05/25 08:58:05;;;;;;;11.77;3.60;;;;;;;;;;5067135;28;20199;-66
2023/05/25 09:00:36;;;;;;;11.10;3.53;;;;;;;;;;5076316;28;20233;-66
2023/05/25 09:03:06;;;;;;;8.10;3.60;;;;;;;;;;5077250;28;20254;-66
2023/05/25 09:05:35;;;;;;;9.03;3.43;;;;;;;;;;5077516;28;20276;-66
2023/05/25 09:08:05;;;;;;;6.53;3.30;;;;;;;;;;5077279;28;20214;-65
2023/05/25 09:10:33;;;;;;;7.53;3.47;;;;;;;;;;5076451;28;20214;-66
2023/05/25 09:13:01;;;;;;;10.17;4.87;;;;;;;;;;5074329;28;20681;-66
2023/05/25 09:15:48;;;;;;;7.83;3.60;;;;;;;;;;5071389;28;20614;-65
2023/05/25 09:18:16;;;;;;;9.93;3.60;;;;;;;;;;5077244;28;20209;-65
2023/05/25 09:20:44;;;;;;;9.70;3.70;;;;;;;;;;5076996;28;20213;-65
2023/05/25 09:23:15;;;;;;;8.23;3.73;;;;;;;;;;5076805;28;20226;-65
2023/05/25 09:25:43;;;;;;;6.43;3.60;;;;;;;;;;5076959;28;20230;-65
2023/05/25 09:28:11;;;;;;;5.77;4.10;;;;;;;;;;5066168;28;20203;-66
2023/05/25 09:30:55;;;;;;;10.30;3.60;;;;;;;;;;5070796;28;20654;-66
2023/05/25 09:33:23;;;;;;;6.13;3.00;;;;;;;;;;5080756;28;20711;-65
2023/05/25 09:35:51;;;;;;;9.53;3.50;;;;;;;;;;5081067;28;20279;-65
2023/05/25 09:38:19;;;;;;;8.73;3.33;;;;;;;;;;5080630;28;20260;-64
2023/05/25 09:40:47;;;;;;;7.63;3.90;;;;;;;;;;5080623;28;20217;-63
2023/05/25 09:43:16;;;;;;;11.30;3.60;;;;;;;;;;5080593;28;20229;-64
2023/05/25 09:46:05;;;;;;;4.70;3.13;;;;;;;;;;5080384;28;20228;-65
2023/05/25 09:48:34;;;;;;;7.07;3.70;;;;;;;;;;5080809;28;20285;-64
2023/05/25 09:51:02;;;;;;;8.07;3.70;;;;;;;;;;5080508;28;20263;-64
2023/05/25 09:53:31;;;;;;;8.73;3.70;;;;;;;;;;5080393;28;20560;-65
2023/05/25 09:56:00;;;;;;;6.87;3.70;;;;;;;;;;5068806;28;20222;-66
2023/05/25 09:58:30;;;;;;;5.63;3.37;;;;;;;;;;5080258;28;20217;-66
2023/05/25 10:00:58;;;;;;;7.43;4.03;;;;;;;;;;5079973;28;20226;-64
2023/05/25 10:03:28;;;;;;;12.13;4.60;;;;;;;;;;5080279;28;20237;-67
2023/05/25 10:05:56;;;;;;;10.00;3.87;;;;;;;;;;5080424;28;20222;-66
2023/05/25 10:08:25;;;;;;;7.07;3.67;;;;;;;;;;5080250;28;20234;-66
2023/05/25 10:11:13;;;;;;;9.23;3.57;;;;;;;;;;5080520;28;20210;-65
2023/05/25 10:13:44;;;;;;;9.27;3.97;;;;;;;;;;5076312;28;20205;-66
2023/05/25 10:16:16;;;;;;;11.53;4.13;;;;;;;;;;5079779;28;20253;-66
2023/05/25 10:18:47;;;;;;;8.47;4.67;;;;;;;;;;5079894;28;20707;-65
2023/05/25 10:21:16;;;;;;;7.57;3.73;;;;;;;;;;5079842;28;20200;-66
2023/05/25 10:23:46;;;;;;;6.07;3.93;;;;;;;;;;5079962;28;20234;-65
2023/05/25 10:26:18;;;;;;;10.77;4.07;;;;;;;;;;5079439;28;20222;-64
2023/05/25 10:28:47;;;;;;;5.23;3.67;;;;;;;;;;5075118;28;20256;-64
2023/05/25 10:31:16;;;;;;;6.70;3.77;;;;;;;;;;5076252;28;20202;-64
2023/05/25 10:33:46;;;;;;;9.13;4.10;;;;;;;;;;5079823;28;20206;-64
2023/05/25 10:36:20;;;;;;;6.13;4.23;;;;;;;;;;5079646;28;20218;-62
2023/05/25 10:38:50;;;;;;;9.10;3.90;;;;;;;;;;5079310;28;20213;-65
2023/05/25 10:41:20;;;;;;;6.17;3.80;;;;;;;;;;5079438;28;20206;-65
2023/05/25 10:43:48;;;;;;;11.63;4.83;;;;;;;;;;5069767;28;20229;-64
2023/05/25 10:46:17;;;;;;;7.93;4.30;;;;;;;;;;5078736;28;20271;-65
2023/05/25 10:48:50;;;;;;;8.07;3.50;;;;;;;;;;5079665;28;20198;-65
2023/05/25 10:51:19;;;;;;;8.47;4.37;;;;;;;;;;5066432;28;20720;-65
2023/05/25 10:53:49;;;;;;;9.83;4.17;;;;;;;;;;5079134;28;20270;-64
2023/05/25 10:56:17;;;;;;;8.20;4.50;;;;;;;;;;5079367;28;20713;-65
2023/05/25 10:58:46;;;;;;;7.00;4.13;;;;;;;;;;5066871;28;20203;-65
2023/05/25 11:01:15;;;;;;;8.87;4.40;;;;;;;;;;5078381;28;20593;-66
2023/05/25 11:03:57;;;;;;;6.37;3.60;;;;;;;;;;5078494;28;20230;-65
2023/05/25 11:06:42;;;;;;;5.73;3.50;;;;;;;;;;5078116;28;20264;-64
2023/05/25 11:09:23;;;;;;;6.47;4.10;;;;;;;;;;5077225;28;20630;-63
2023/05/25 11:12:02;;;;;;;5.47;3.97;;;;;;;;;;5078405;28;20564;-65
2023/05/25 11:14:31;;;;;;;7.70;4.57;;;;;;;;;;5078440;28;20300;-65
2023/05/25 11:17:06;;;;;;;6.47;4.27;;;;;;;;;;5078432;28;20604;-64
2023/05/25 11:19:47;;;;;;;7.13;4.00;;;;;;;;;;5075853;28;20198;-65
2023/05/25 11:22:19;;;;;;;6.97;4.07;;;;;;;;;;5076316;28;20684;-65
2023/05/25 11:24:47;;;;;;;7.93;4.63;;;;;;;;;;5078316;28;20226;-65
2023/05/25 11:27:15;;;;;;;8.17;3.47;;;;;;;;;;5076043;28;20580;-63
2023/05/25 11:29:43;;;;;;;7.20;4.50;;;;;;;;;;5078397;28;20221;-65
2023/05/25 11:32:13;;;;;;;9.67;4.43;;;;;;;;;;5078673;28;20201;-65
2023/05/25 11:34:45;;;;;;;8.37;4.60;;;;;;;;;;5076674;28;20240;-65
2023/05/25 11:37:16;;;;;;;7.97;4.60;;;;;;;;;;5078404;28;20201;-65
2023/05/25 11:39:46;;;;;;;10.07;5.03;;;;;;;;;;5078513;28;20198;-65
2023/05/25 11:42:15;;;;;;;8.67;5.97;;;;;;;;;;5075942;28;20195;-65
2023/05/25 11:44:43;;;;;;;11.07;4.30;;;;;;;;;;5074030;28;20236;-65
2023/05/25 11:47:13;;;;;;;6.83;4.37;;;;;;;;;;5078237;28;20222;-67
2023/05/25 11:49:44;;;;;;;10.87;4.63;;;;;;;;;;5078407;28;20611;-67
2023/05/25 11:52:13;;;;;;;7.87;4.37;;;;;;;;;;5078205;28;20237;-67
2023/05/25 11:54:42;;;;;;;9.00;5.33;;;;;;;;;;5078556;28;20206;-67
2023/05/25 11:57:14;;;;;;;7.53;4.33;;;;;;;;;;5078331;28;20222;-65
2023/05/25 11:59:47;;;;;;;5.93;4.17;;;;;;;;;;5078101;28;20210;-66
2023/05/25 12:02:15;;;;;;;7.53;4.47;;;;;;;;;;5078304;28;20241;-66
2023/05/25 12:04:52;;;;;;;10.60;5.13;;;;;;;;;;5077923;28;20705;-67
2023/05/25 12:07:21;;;;;;;5.63;4.03;;;;;;;;;;5078143;28;20236;-66
2023/05/25 12:09:50;;;;;;;9.60;4.93;;;;;;;;;;5077966;28;20574;-66
2023/05/25 12:12:19;;;;;;;7.53;4.87;;;;;;;;;;5078378;28;20210;-66
2023/05/25 12:14:47;;;;;;;10.60;4.93;;;;;;;;;;5078087;28;20236;-66
2023/05/25 12:17:16;;;;;;;10.17;4.97;;;;;;;;;;5078349;28;20692;-66
2023/05/25 12:19:44;;;;;;;8.20;4.70;;;;;;;;;;5078263;28;20206;-66
2023/05/25 12:22:13;;;;;;;8.37;4.50;;;;;;;;;;5069886;28;20206;-66
2023/05/25 12:24:41;;;;;;;9.50;4.83;;;;;;;;;;5076589;28;20226;-66
2023/05/25 12:27:18;;;;;;;9.10;4.97;;;;;;;;;;5078541;28;20271;-67
2023/05/25 12:29:46;;;;;;;11.50;4.73;;;;;;;;;;5078692;28;20213;-67
2023/05/25 12:32:14;;;;;;;10.40;4.90;;;;;;;;;;5079086;28;20661;-67
2023/05/25 12:34:42;;;;;;;11.77;4.70;;;;;;;;;;5078358;28;20206;-66
2023/05/25 12:37:17;;;;;;;9.20;4.30;;;;;;;;;;5078018;28;20233;-66
2023/05/25 12:39:46;;;;;;;8.40;4.50;;;;;;;;;;5078285;28;20229;-65
2023/05/25 12:42:15;;;;;;;9.57;4.63;;;;;;;;;;5077965;28;20209;-65
2023/05/25 12:44:45;;;;;;;7.17;4.73;;;;;;;;;;5078156;28;20316;-65
2023/05/25 12:47:14;;;;;;;10.50;4.37;;;;;;;;;;5078092;28;20217;-66
2023/05/25 12:49:43;;;;;;;6.90;4.30;;;;;;;;;;5078414;28;20212;-66
2023/05/25 12:52:11;;;;;;;9.23;5.00;;;;;;;;;;5077856;28;20206;-65
2023/05/25 12:54:42;;;;;;;10.50;4.93;;;;;;;;;;5078208;28;20216;-66
2023/05/25 12:57:11;;;;;;;9.47;4.57;;;;;;;;;;5077579;28;20696;-66
2023/05/25 12:59:40;;;;;;;9.20;4.20;;;;;;;;;;5077677;28;20682;-65
2023/05/25 13:02:10;;;;;;;7.00;4.10;;;;;;;;;;5076718;28;20700;-66
2023/05/25 13:04:39;;;;;;;10.03;4.27;;;;;;;;;;5072365;28;20263;-66
2023/05/25 13:07:08;;;;;;;6.80;4.17;;;;;;;;;;5081603;28;20222;-65
2023/05/25 13:09:37;;;;;;;9.97;4.20;;;;;;;;;;5080294;28;20721;-65
2023/05/25 13:12:05;;;;;;;9.47;4.47;;;;;;;;;;5081879;28;20206;-66
2023/05/25 13:14:33;;;;;;;6.43;4.23;;;;;;;;;;5081378;28;20235;-66
2023/05/25 13:17:01;;;;;;;9.83;4.00;;;;;;;;;;5074307;28;20677;-66
2023/05/25 13:19:31;;;;;;;7.70;4.27;;;;;;;;;;5081500;28;20235;-66
2023/05/25 13:21:59;;;;;;;7.23;4.53;;;;;;;;;;5081736;28;20221;-66
2023/05/25 13:24:27;;;;;;;6.97;4.37;;;;;;;;;;5081196;28;20233;-66
2023/05/25 13:26:55;;;;;;;8.17;4.47;;;;;;;;;;5081635;28;20308;-65
2023/05/25 13:29:24;;;;;;;10.13;4.47;;;;;;;;;;5081003;28;20202;-66
2023/05/25 13:31:52;;;;;;;9.07;4.43;;;;;;;;;;5081260;28;20266;-65
2023/05/25 13:34:20;;;;;;;6.73;4.37;;;;;;;;;;5081387;28;20285;-66
2023/05/25 13:36:50;;;;;;;7.10;3.90;;;;;;;;;;5081143;28;20241;-66
2023/05/25 13:39:18;;;;;;;8.93;3.83;;;;;;;;;;5081156;28;20206;-65
2023/05/25 13:41:46;;;;;;;12.97;4.30;;;;;;;;;;5081037;28;20727;-66
2023/05/25 13:44:14;;;;;;;7.30;4.07;;;;;;;;;;5080611;28;20226;-66
2023/05/25 13:46:44;;;;;;;8.10;4.50;;;;;;;;;;5080853;28;20231;-66
2023/05/25 13:49:14;;;;;;;5.93;3.80;;;;;;;;;;5080802;28;20206;-65
2023/05/25 13:51:42;;;;;;;6.37;3.93;;;;;;;;;;5080939;28;20228;-64
2023/05/25 13:54:12;;;;;;;4.93;3.63;;;;;;;;;;5080618;28;20209;-66
2023/05/25 13:56:41;;;;;;;7.27;3.93;;;;;;;;;;5080788;28;20225;-65
2023/05/25 13:59:09;;;;;;;7.93;3.97;;;;;;;;;;5080400;28;20233;-65
2023/05/25 14:01:37;;;;;;;6.63;4.67;;;;;;;;;;5080581;28;20238;-64
2023/05/25 14:04:05;;;;;;;7.80;4.53;;;;;;;;;;5080544;28;20316;-65
2023/05/25 14:06:34;;;;;;;6.73;3.57;;;;;;;;;;5080386;28;20741;-65
2023/05/25 14:09:02;;;;;;;9.00;4.17;;;;;;;;;;5080285;28;20710;-65
2023/05/25 14:11:31;;;;;;;8.63;3.90;;;;;;;;;;5080418;28;20256;-64
2023/05/25 14:13:59;;;;;;;8.43;4.57;;;;;;;;;;5080194;28;20685;-65
2023/05/25 14:16:28;;;;;;;6.43;3.37;;;;;;;;;;5079631;28;20638;-65
2023/05/25 14:18:56;;;;;;;5.10;3.37;;;;;;;;;;5080348;28;20252;-65
2023/05/25 14:21:24;;;;;;;8.73;4.27;;;;;;;;;;5080917;28;20230;-65
2023/05/25 14:23:52;;;;;;;8.67;4.00;;;;;;;;;;5080146;28;20709;-67
2023/05/25 14:26:20;;;;;;;5.80;3.30;;;;;;;;;;5080159;28;20232;-65
2023/05/25 14:28:50;;;;;;;7.20;3.73;;;;;;;;;;5080013;28;20650;-65
2023/05/25 14:31:18;;;;;;;6.40;3.33;;;;;;;;;;5081691;28;20650;-67
2023/05/25 14:33:46;;;;;;;7.70;3.23;;;;;;;;;;5080669;28;20826;-65
2023/05/25 14:36:14;;;;;;;8.07;3.97;;;;;;;;;;5080406;28;20225;-65
2023/05/25 14:38:42;;;;;;;5.13;3.40;;;;;;;;;;5080181;28;20214;-64
2023/05/25 14:41:10;;;;;;;5.70;3.97;;;;;;;;;;5079904;28;20229;-66
2023/05/25 14:43:38;;;;;;;6.63;3.53;;;;;;;;;;5079859;28;20213;-66
2023/05/25 14:46:09;;;;;;;7.80;3.63;;;;;;;;;;5079993;28;20258;-65
2023/05/25 14:48:37;;;;;;;6.30;3.73;;;;;;;;;;5080133;28;20257;-66
2023/05/25 14:51:05;;;;;;;6.10;3.20;;;;;;;;;;5080084;28;20209;-66
2023/05/25 14:53:33;;;;;;;8.17;3.30;;;;;;;;;;5079825;28;20210;-66